Time;durP1;ratioP1;P1;durP2;ratioP2;P2;SDS_P1;SDS_P2;PMS_P1;PMS_P2;Temp;Humidity;BMP_temperature;BMP_pressure;BME280_temperature;BME280_humidity;BME280_pressure;Samples;Min_cycle;Max_cycle;Signal;HPM_P1;HPM_P2
2023/10/28 00:00:17;;;;;;;2.75;1.88;;;12.90;78.10;;;;;;5035009;28;20088;-78
2023/10/28 00:02:46;;;;;;;2.10;1.88;;;12.90;78.10;;;;;;5033687;28;20121;-78
2023/10/28 00:05:11;;;;;;;2.83;2.00;;;12.90;78.20;;;;;;5035142;28;20103;-80
2023/10/28 00:07:37;;;;;;;3.08;2.10;;;12.90;78.20;;;;;;5032919;28;20037;-78
2023/10/28 00:10:07;;;;;;;2.60;1.80;;;12.90;78.20;;;;;;5032938;28;20623;-79
2023/10/28 00:12:33;;;;;;;1.90;1.70;;;12.90;78.20;;;;;;5032039;28;20049;-78
2023/10/28 00:14:59;;;;;;;2.42;1.88;;;12.90;78.20;;;;;;5032927;28;20474;-77
2023/10/28 00:17:25;;;;;;;2.15;1.90;;;12.90;78.20;;;;;;5035596;28;20041;-79
2023/10/28 00:19:51;;;;;;;2.78;1.92;;;12.90;78.20;;;;;;5032966;28;20034;-78
2023/10/28 00:22:17;;;;;;;2.17;1.85;;;12.90;78.20;;;;;;5015702;28;20041;-78
2023/10/28 00:24:43;;;;;;;2.97;1.90;;;12.90;78.20;;;;;;5031614;28;20060;-78
2023/10/28 00:27:10;;;;;;;2.30;1.77;;;12.80;78.20;;;;;;5033233;28;20056;-78
2023/10/28 00:29:36;;;;;;;2.50;1.95;;;12.90;78.30;;;;;;5030573;28;20028;-80
2023/10/28 00:32:04;;;;;;;2.55;2.13;;;12.80;78.20;;;;;;5031246;28;20037;-78
2023/10/28 00:34:32;;;;;;;2.35;1.80;;;12.80;78.20;;;;;;5034096;28;20033;-78
2023/10/28 00:36:59;;;;;;;2.45;1.77;;;12.90;78.30;;;;;;5014564;28;20091;-78
2023/10/28 00:39:24;;;;;;;2.38;1.88;;;12.80;78.30;;;;;;5020542;28;20038;-78
2023/10/28 00:41:50;;;;;;;2.17;1.77;;;12.80;78.20;;;;;;5018912;28;20034;-77
2023/10/28 00:44:16;;;;;;;2.60;1.85;;;12.80;78.20;;;;;;5032111;28;20033;-78
2023/10/28 00:46:42;;;;;;;2.72;1.70;;;12.80;78.20;;;;;;5031581;28;20033;-78
2023/10/28 00:49:09;;;;;;;2.08;1.65;;;12.80;78.20;;;;;;5000313;28;20474;-78
2023/10/28 00:51:35;;;;;;;2.47;1.80;;;12.80;78.30;;;;;;5013655;28;20046;-78
2023/10/28 00:54:01;;;;;;;2.40;1.80;;;12.80;78.30;;;;;;5032685;28;20121;-78
2023/10/28 00:56:28;;;;;;;1.60;1.50;;;12.80;78.30;;;;;;5033045;28;20033;-78
2023/10/28 00:58:55;;;;;;;2.10;1.70;;;12.80;78.30;;;;;;5015642;28;20083;-79
2023/10/28 01:01:21;;;;;;;2.22;1.70;;;12.80;78.30;;;;;;5048145;28;20034;-78
2023/10/28 01:03:47;;;;;;;1.88;1.50;;;12.80;78.30;;;;;;5035321;28;20076;-78
2023/10/28 01:06:14;;;;;;;2.38;1.60;;;12.80;78.30;;;;;;5018177;28;20378;-78
2023/10/28 01:08:40;;;;;;;3.30;1.73;;;12.80;78.30;;;;;;5023059;28;20029;-78
2023/10/28 01:11:05;;;;;;;2.80;1.90;;;12.80;78.30;;;;;;5039829;28;20067;-78
2023/10/28 01:13:31;;;;;;;2.35;1.67;;;12.80;78.30;;;;;;5017742;28;20025;-78
2023/10/28 01:15:59;;;;;;;2.78;1.60;;;12.80;78.30;;;;;;5019175;28;20120;-78
2023/10/28 01:18:25;;;;;;;1.95;1.75;;;12.80;78.30;;;;;;5029800;28;20026;-78
2023/10/28 01:20:51;;;;;;;2.63;1.92;;;12.80;78.30;;;;;;5006717;28;20029;-78
2023/10/28 01:23:18;;;;;;;2.63;2.10;;;12.80;78.30;;;;;;5031834;28;20128;-78
2023/10/28 01:25:43;;;;;;;2.88;1.83;;;12.80;78.30;;;;;;5035314;28;20091;-78
2023/10/28 01:28:09;;;;;;;2.30;1.75;;;12.80;78.30;;;;;;5017159;28;20061;-78
2023/10/28 01:30:37;;;;;;;2.13;1.60;;;12.80;78.30;;;;;;5038351;28;20076;-78
2023/10/28 01:33:03;;;;;;;2.17;1.60;;;12.80;78.30;;;;;;5016035;28;20026;-78
2023/10/28 01:35:29;;;;;;;2.17;1.80;;;12.80;78.30;;;;;;5033277;28;20504;-78
2023/10/28 01:37:55;;;;;;;2.00;1.77;;;12.80;78.30;;;;;;4998973;28;20017;-78
2023/10/28 01:40:20;;;;;;;1.70;1.60;;;12.80;78.30;;;;;;5015974;28;20475;-78
2023/10/28 01:42:46;;;;;;;2.35;1.80;;;12.80;78.30;;;;;;5037747;28;20029;-78
2023/10/28 01:45:14;;;;;;;1.90;1.70;;;12.80;78.30;;;;;;5015382;28;20083;-78
2023/10/28 01:47:41;;;;;;;2.63;1.83;;;12.80;78.30;;;;;;5021615;28;20059;-78
2023/10/28 01:50:07;;;;;;;2.60;1.80;;;12.80;78.30;;;;;;5038724;28;20498;-77
2023/10/28 01:52:34;;;;;;;2.90;1.80;;;12.80;78.30;;;;;;5027762;28;20061;-79
2023/10/28 01:55:00;;;;;;;3.30;1.70;;;12.80;78.30;;;;;;5039508;28;20030;-77
2023/10/28 01:57:25;;;;;;;2.15;1.77;;;12.80;78.30;;;;;;5021418;28;20083;-78
2023/10/28 01:59:52;;;;;;;2.15;1.55;;;12.80;78.30;;;;;;5018898;28;20120;-78
2023/10/28 02:02:18;;;;;;;1.55;1.45;;;12.80;78.30;;;;;;5026054;28;20160;-78
2023/10/28 02:04:44;;;;;;;3.10;1.70;;;12.90;78.30;;;;;;5016221;28;20132;-77
2023/10/28 02:07:09;;;;;;;2.40;1.67;;;12.90;78.30;;;;;;5022677;28;20033;-78
2023/10/28 02:09:35;;;;;;;1.92;1.73;;;12.90;78.30;;;;;;5013552;28;20029;-78
2023/10/28 02:12:04;;;;;;;2.25;1.60;;;12.90;78.30;;;;;;5031597;28;20038;-78
2023/10/28 02:14:30;;;;;;;2.50;1.98;;;12.80;78.30;;;;;;5014579;28;20088;-78
2023/10/28 02:16:56;;;;;;;2.45;1.80;;;12.90;78.30;;;;;;5013345;28;20074;-78
2023/10/28 02:19:22;;;;;;;1.88;1.50;;;12.90;78.30;;;;;;5033125;28;20072;-78
2023/10/28 02:21:49;;;;;;;1.67;1.48;;;12.90;78.30;;;;;;5015747;28;20068;-77
2023/10/28 02:24:16;;;;;;;2.33;1.70;;;12.90;78.30;;;;;;5016334;28;20382;-79
2023/10/28 02:26:43;;;;;;;1.90;1.60;;;12.90;78.30;;;;;;5044735;28;20053;-78
2023/10/28 02:29:09;;;;;;;1.88;1.52;;;12.90;78.30;;;;;;5038155;28;20029;-78
2023/10/28 02:31:34;;;;;;;1.60;1.48;;;12.90;78.30;;;;;;5021311;28;20414;-78
2023/10/28 02:34:00;;;;;;;2.25;1.60;;;12.90;78.30;;;;;;5034395;28;20044;-79
2023/10/28 02:36:26;;;;;;;2.78;1.67;;;12.90;78.30;;;;;;5032193;28;20036;-78
2023/10/28 02:38:52;;;;;;;1.83;1.42;;;12.90;78.30;;;;;;5014524;28;20124;-77
2023/10/28 02:41:18;;;;;;;1.40;1.30;;;12.90;78.30;;;;;;5032465;28;20033;-79
2023/10/28 02:43:44;;;;;;;2.08;1.52;;;12.90;78.30;;;;;;5015969;28;20116;-77
2023/10/28 02:46:09;;;;;;;1.85;1.60;;;12.90;78.30;;;;;;5022069;28;20510;-77
2023/10/28 02:48:35;;;;;;;2.05;1.60;;;12.90;78.30;;;;;;5037908;28;20026;-78
2023/10/28 02:51:05;;;;;;;1.40;1.30;;;12.90;78.30;;;;;;5035885;28;20061;-78
2023/10/28 02:53:32;;;;;;;1.70;1.60;;;12.90;78.30;;;;;;4997642;28;20029;-77
2023/10/28 02:56:01;;;;;;;2.05;1.40;;;12.90;78.30;;;;;;5037162;28;20840;-78
2023/10/28 02:58:27;;;;;;;1.70;1.50;;;12.90;78.30;;;;;;5013041;28;20022;-78
2023/10/28 03:00:55;;;;;;;2.92;1.83;;;12.90;78.30;;;;;;5015270;28;20100;-80
2023/10/28 03:03:20;;;;;;;2.03;1.65;;;12.90;78.30;;;;;;5034053;28;20044;-79
2023/10/28 03:05:46;;;;;;;2.13;1.40;;;12.90;78.30;;;;;;5042448;28;20025;-78
2023/10/28 03:08:13;;;;;;;1.60;1.50;;;13.00;78.30;;;;;;5041228;28;20450;-78
2023/10/28 03:10:39;;;;;;;1.40;1.30;;;12.90;78.30;;;;;;5023419;28;20044;-80
2023/10/28 03:13:05;;;;;;;1.55;1.33;;;12.90;78.30;;;;;;5038626;28;20453;-78
2023/10/28 03:15:32;;;;;;;1.50;1.40;;;13.00;78.30;;;;;;5015393;28;20034;-78
2023/10/28 03:17:58;;;;;;;1.50;1.40;;;12.90;78.20;;;;;;5017998;28;20053;-78
2023/10/28 03:20:23;;;;;;;1.92;1.50;;;12.90;78.20;;;;;;5045199;28;20398;-78
2023/10/28 03:22:50;;;;;;;1.40;1.30;;;13.00;78.30;;;;;;5023311;28;20451;-78
2023/10/28 03:25:16;;;;;;;1.42;1.33;;;13.00;78.40;;;;;;5048873;28;20060;-78
2023/10/28 03:27:42;;;;;;;1.45;1.35;;;12.90;78.20;;;;;;5018937;28;20470;-78
2023/10/28 03:30:09;;;;;;;1.48;1.20;;;12.90;78.20;;;;;;5040278;28;20037;-78
2023/10/28 03:32:34;;;;;;;2.33;1.33;;;12.90;78.20;;;;;;5026256;28;20033;-78
2023/10/28 03:35:00;;;;;;;1.30;1.20;;;12.90;78.20;;;;;;4999165;28;20437;-78
2023/10/28 03:37:32;;;;;;;1.45;1.33;;;13.00;78.30;;;;;;5015857;28;20112;-79
2023/10/28 03:39:59;;;;;;;1.35;1.25;;;13.00;78.30;;;;;;5017486;28;20383;-80
2023/10/28 03:42:25;;;;;;;1.40;1.30;;;13.00;78.30;;;;;;5027979;28;20025;-78
2023/10/28 03:44:50;;;;;;;1.40;1.30;;;12.90;78.20;;;;;;5038434;28;20029;-78
2023/10/28 03:47:16;;;;;;;1.67;1.45;;;12.90;78.20;;;;;;5040742;28;20385;-79
2023/10/28 03:49:42;;;;;;;2.05;1.48;;;12.90;78.20;;;;;;5041416;28;20117;-78
2023/10/28 03:52:08;;;;;;;1.80;1.40;;;13.00;78.30;;;;;;5017822;28;20044;-78
2023/10/28 03:54:33;;;;;;;1.23;1.17;;;13.00;78.30;;;;;;5019659;28;20355;-78
2023/10/28 03:56:59;;;;;;;1.40;1.30;;;12.90;78.20;;;;;;5022470;28;20041;-78
2023/10/28 03:59:25;;;;;;;1.35;1.25;;;12.90;78.20;;;;;;4985808;28;20037;-79
2023/10/28 04:01:50;;;;;;;1.80;1.42;;;12.90;78.20;;;;;;5010900;28;20033;-78
2023/10/28 04:04:17;;;;;;;1.30;1.20;;;13.00;78.30;;;;;;5028220;28;20033;-78
2023/10/28 04:06:42;;;;;;;1.38;1.13;;;12.90;78.20;;;;;;5017954;28;20029;-78
2023/10/28 04:09:08;;;;;;;1.25;1.15;;;13.00;78.30;;;;;;5008196;28;20025;-79
2023/10/28 04:11:34;;;;;;;1.60;1.40;;;12.90;78.20;;;;;;5015071;28;20029;-78
2023/10/28 04:13:59;;;;;;;2.10;1.40;;;12.90;78.20;;;;;;5013908;28;20038;-78
2023/10/28 04:16:25;;;;;;;1.50;1.40;;;12.90;78.20;;;;;;5019751;28;20402;-78
2023/10/28 04:18:52;;;;;;;1.40;1.30;;;12.90;78.20;;;;;;5016308;28;20059;-79
2023/10/28 04:21:18;;;;;;;1.42;1.23;;;12.90;78.30;;;;;;5036791;28;20045;-78
2023/10/28 04:23:43;;;;;;;1.33;1.23;;;12.90;78.20;;;;;;4999537;28;20029;-78
2023/10/28 04:26:09;;;;;;;1.58;1.30;;;12.90;78.20;;;;;;5007982;28;20117;-78
2023/10/28 04:28:36;;;;;;;1.40;1.30;;;12.90;78.20;;;;;;5022747;28;20021;-78
2023/10/28 04:31:02;;;;;;;1.35;1.25;;;13.00;78.30;;;;;;5022104;28;20048;-78
2023/10/28 04:33:28;;;;;;;1.10;1.00;;;12.90;78.20;;;;;;5035101;28;20445;-78
2023/10/28 04:35:54;;;;;;;2.47;1.40;;;12.90;78.20;;;;;;5024225;28;20025;-78
2023/10/28 04:38:23;;;;;;;2.53;1.33;;;12.90;78.20;;;;;;5025936;28;20087;-78
2023/10/28 04:40:51;;;;;;;1.30;1.20;;;12.90;78.20;;;;;;5031847;28;20035;-79
2023/10/28 04:43:19;;;;;;;1.13;1.02;;;12.90;78.20;;;;;;5021349;28;20095;-78
2023/10/28 04:45:45;;;;;;;1.10;1.10;;;13.00;78.30;;;;;;5018216;28;20033;-80
2023/10/28 04:48:13;;;;;;;1.30;1.20;;;12.90;78.20;;;;;;5023070;28;20071;-78
2023/10/28 04:50:41;;;;;;;1.40;1.30;;;13.00;78.30;;;;;;5036816;28;20033;-78
2023/10/28 04:53:07;;;;;;;1.48;1.38;;;13.00;78.30;;;;;;5000437;28;20052;-78
2023/10/28 04:55:33;;;;;;;1.20;1.10;;;12.90;78.20;;;;;;5016590;28;20489;-78
2023/10/28 04:57:59;;;;;;;1.00;1.00;;;13.00;78.30;;;;;;5042699;28;20033;-80
2023/10/28 05:00:25;;;;;;;1.25;1.13;;;13.00;78.20;;;;;;5016865;28;20080;-78
2023/10/28 05:02:51;;;;;;;1.23;1.10;;;12.90;78.20;;;;;;5025113;28;20371;-78
2023/10/28 05:05:17;;;;;;;1.17;1.10;;;13.00;78.30;;;;;;5020909;28;20035;-79
2023/10/28 05:07:43;;;;;;;1.55;1.20;;;13.00;78.30;;;;;;5034349;28;20064;-78
2023/10/28 05:10:09;;;;;;;1.27;1.17;;;13.00;78.30;;;;;;5033011;28;20052;-78
2023/10/28 05:12:38;;;;;;;1.33;1.15;;;13.00;78.30;;;;;;5033898;28;20068;-78
2023/10/28 05:15:08;;;;;;;1.05;1.05;;;13.00;78.30;;;;;;5014121;28;20021;-79
2023/10/28 05:17:38;;;;;;;1.48;1.20;;;13.00;78.30;;;;;;5031791;28;20108;-78
2023/10/28 05:20:06;;;;;;;1.27;1.17;;;13.00;78.30;;;;;;5031473;28;20030;-79
2023/10/28 05:22:36;;;;;;;1.35;1.15;;;13.00;78.30;;;;;;5042935;28;20032;-78
2023/10/28 05:25:04;;;;;;;1.20;1.10;;;13.00;78.30;;;;;;5032372;28;20030;-78
2023/10/28 05:27:31;;;;;;;1.13;1.08;;;13.00;78.30;;;;;;5033818;28;20037;-78
2023/10/28 05:29:56;;;;;;;1.30;1.20;;;13.00;78.30;;;;;;5036853;28;20041;-79
2023/10/28 05:32:22;;;;;;;1.42;1.20;;;13.00;78.30;;;;;;5015935;28;20379;-79
2023/10/28 05:34:48;;;;;;;1.10;1.00;;;13.00;78.30;;;;;;5032327;28;20455;-78
2023/10/28 05:37:13;;;;;;;1.23;1.13;;;13.00;78.30;;;;;;5032413;28;20044;-79
2023/10/28 05:39:40;;;;;;;1.40;1.30;;;13.00;78.30;;;;;;5018972;28;20018;-78
2023/10/28 05:42:07;;;;;;;1.45;1.20;;;13.10;78.30;;;;;;5034085;28;20401;-78
2023/10/28 05:44:32;;;;;;;1.08;1.00;;;13.00;78.20;;;;;;5036253;28;20377;-78
2023/10/28 05:46:59;;;;;;;1.00;1.00;;;13.00;78.20;;;;;;5036929;28;20125;-79
2023/10/28 05:49:25;;;;;;;1.08;1.00;;;13.00;78.30;;;;;;5031474;28;20029;-79
2023/10/28 05:51:51;;;;;;;1.30;1.20;;;13.00;78.30;;;;;;5027321;28;20052;-82
2023/10/28 05:54:17;;;;;;;1.35;1.25;;;13.00;78.30;;;;;;5032330;28;20546;-79
2023/10/28 05:56:43;;;;;;;1.33;1.15;;;13.00;78.30;;;;;;5042031;28;20030;-79
2023/10/28 05:59:09;;;;;;;1.27;1.10;;;13.10;78.30;;;;;;5020781;28;20033;-79
2023/10/28 06:01:35;;;;;;;1.10;1.08;;;13.10;78.30;;;;;;5015432;28;20083;-79
2023/10/28 06:04:01;;;;;;;1.25;1.15;;;13.10;78.30;;;;;;5013636;28;20437;-79
2023/10/28 06:06:27;;;;;;;1.20;1.10;;;13.00;78.30;;;;;;5015530;28;20056;-78
2023/10/28 06:08:54;;;;;;;1.50;1.08;;;13.00;78.30;;;;;;5013634;28;20394;-78
2023/10/28 06:11:20;;;;;;;1.48;1.27;;;13.10;78.30;;;;;;5024422;28;20477;-78
2023/10/28 06:13:45;;;;;;;1.02;1.00;;;13.10;78.30;;;;;;5008802;28;20038;-78
2023/10/28 06:16:11;;;;;;;1.45;1.30;;;13.00;78.20;;;;;;5011616;28;20030;-79
2023/10/28 06:18:38;;;;;;;1.15;1.10;;;13.10;78.30;;;;;;5017731;28;20076;-79
2023/10/28 06:21:04;;;;;;;1.23;1.10;;;13.10;78.30;;;;;;5034363;28;20152;-78
2023/10/28 06:23:30;;;;;;;1.35;1.20;;;13.10;78.30;;;;;;5014745;28;20095;-78
2023/10/28 06:25:55;;;;;;;1.17;1.08;;;13.10;78.30;;;;;;4991471;28;20483;-79
2023/10/28 06:28:22;;;;;;;1.30;1.20;;;13.10;78.30;;;;;;5019242;28;20040;-78
2023/10/28 06:30:48;;;;;;;1.40;1.30;;;13.10;78.30;;;;;;5013226;28;20096;-80
2023/10/28 06:33:14;;;;;;;1.30;1.20;;;13.10;78.30;;;;;;5037295;28;20116;-78
2023/10/28 06:35:40;;;;;;;0.90;0.90;;;13.10;78.30;;;;;;5019212;28;20108;-77
2023/10/28 06:38:06;;;;;;;1.50;1.40;;;13.10;78.30;;;;;;5018531;28;20045;-76
2023/10/28 06:40:33;;;;;;;1.38;1.10;;;13.10;78.30;;;;;;5028935;28;20037;-78
2023/10/28 06:42:58;;;;;;;1.48;1.30;;;13.10;78.30;;;;;;5036034;28;20057;-77
2023/10/28 06:45:24;;;;;;;1.13;1.05;;;13.10;78.30;;;;;;5004710;28;20060;-79
2023/10/28 06:47:53;;;;;;;1.38;1.27;;;13.10;78.30;;;;;;5019628;28;20040;-78
2023/10/28 06:50:21;;;;;;;1.40;1.30;;;13.10;78.30;;;;;;5028573;28;20105;-77
2023/10/28 06:52:48;;;;;;;1.27;1.17;;;13.10;78.30;;;;;;5038435;28;20070;-78
2023/10/28 06:55:14;;;;;;;1.55;1.15;;;13.10;78.30;;;;;;5035539;28;20029;-78
2023/10/28 06:57:41;;;;;;;1.63;1.20;;;13.10;78.30;;;;;;5033083;28;20071;-83
2023/10/28 07:00:13;;;;;;;1.30;1.10;;;13.10;78.40;;;;;;4999431;28;20040;-78
2023/10/28 07:02:40;;;;;;;1.40;1.30;;;13.10;78.30;;;;;;5009189;28;20037;-78
2023/10/28 07:05:10;;;;;;;1.98;1.48;;;13.10;78.30;;;;;;5028828;28;20113;-78
2023/10/28 07:07:36;;;;;;;1.35;1.13;;;13.10;78.30;;;;;;5015697;28;20030;-78
2023/10/28 07:10:02;;;;;;;1.40;1.30;;;13.10;78.30;;;;;;5021634;28;20036;-78
2023/10/28 07:12:28;;;;;;;1.27;1.17;;;13.10;78.30;;;;;;5012172;28;20399;-78
2023/10/28 07:14:55;;;;;;;1.63;1.20;;;13.10;78.30;;;;;;5013777;28;20091;-78
2023/10/28 07:17:22;;;;;;;0.95;0.95;;;13.10;78.30;;;;;;5025369;28;20056;-77
2023/10/28 07:19:52;;;;;;;1.08;1.05;;;13.10;78.30;;;;;;5021158;28;20496;-79
2023/10/28 07:22:22;;;;;;;1.25;1.15;;;13.20;78.30;;;;;;5040239;28;20033;-77
2023/10/28 07:24:48;;;;;;;1.20;1.10;;;13.10;78.30;;;;;;5035117;28;20037;-77
2023/10/28 07:27:15;;;;;;;2.05;1.30;;;13.10;78.30;;;;;;5036679;28;20021;-78
2023/10/28 07:29:40;;;;;;;1.42;1.30;;;13.10;78.30;;;;;;5030727;28;20017;-77
2023/10/28 07:32:06;;;;;;;1.23;1.13;;;13.10;78.30;;;;;;5042462;28;20028;-79
2023/10/28 07:34:32;;;;;;;1.38;1.27;;;13.10;78.30;;;;;;5027960;28;20044;-77
2023/10/28 07:37:05;;;;;;;1.75;1.30;;;13.10;78.30;;;;;;5039841;28;20127;-78
2023/10/28 07:39:31;;;;;;;1.23;1.10;;;13.20;78.40;;;;;;5021445;28;20032;-77
2023/10/28 07:41:57;;;;;;;1.20;1.10;;;13.10;78.30;;;;;;5039283;28;20033;-77
2023/10/28 07:44:23;;;;;;;1.13;1.02;;;13.20;78.30;;;;;;5029690;28;20359;-77
2023/10/28 07:46:49;;;;;;;1.30;1.20;;;13.20;78.30;;;;;;5039689;28;20033;-77
2023/10/28 07:49:15;;;;;;;1.50;1.30;;;13.20;78.40;;;;;;5024084;28;20116;-77
2023/10/28 07:51:41;;;;;;;1.00;1.00;;;13.20;78.40;;;;;;5043583;28;20124;-77
2023/10/28 07:54:07;;;;;;;1.27;1.17;;;13.20;78.30;;;;;;5027170;28;20037;-79
2023/10/28 07:56:33;;;;;;;2.40;1.30;;;13.20;78.30;;;;;;5033781;28;20025;-78
2023/10/28 07:59:00;;;;;;;1.20;1.15;;;13.20;78.30;;;;;;5011072;28;20032;-77
2023/10/28 08:01:29;;;;;;;1.40;1.20;;;13.20;78.30;;;;;;5050403;28;20017;-77
2023/10/28 08:03:56;;;;;;;1.65;1.10;;;13.20;78.40;;;;;;5030538;28;20469;-78
2023/10/28 08:06:22;;;;;;;0.98;0.98;;;13.30;78.40;;;;;;5012208;28;20547;-77
2023/10/28 08:08:48;;;;;;;1.90;1.25;;;13.20;78.40;;;;;;5023221;28;20040;-77
2023/10/28 08:11:16;;;;;;;1.25;1.15;;;13.20;78.30;;;;;;5039291;28;20394;-77
2023/10/28 08:13:42;;;;;;;1.45;1.23;;;13.20;78.30;;;;;;5029342;28;20037;-77
2023/10/28 08:16:09;;;;;;;1.63;1.10;;;13.20;78.30;;;;;;5036367;28;20067;-78
2023/10/28 08:18:40;;;;;;;2.13;1.20;;;13.30;78.40;;;;;;5024676;28;20088;-77
2023/10/28 08:21:07;;;;;;;1.83;1.20;;;13.30;78.40;;;;;;5038813;28;20397;-77
2023/10/28 08:23:33;;;;;;;1.45;1.10;;;13.30;78.40;;;;;;5038363;28;20029;-77
2023/10/28 08:25:59;;;;;;;1.23;1.13;;;13.30;78.30;;;;;;5033787;28;20040;-77
2023/10/28 08:28:28;;;;;;;1.20;1.10;;;13.30;78.30;;;;;;5018470;28;20021;-78
2023/10/28 08:30:54;;;;;;;1.20;1.10;;;13.40;78.40;;;;;;5038292;28;20037;-77
2023/10/28 08:33:20;;;;;;;1.10;1.00;;;13.40;78.40;;;;;;5028085;28;20029;-78
2023/10/28 08:35:51;;;;;;;1.10;1.00;;;13.40;78.40;;;;;;5045674;28;20091;-78
2023/10/28 08:38:17;;;;;;;1.30;1.20;;;13.40;78.40;;;;;;5040003;28;20115;-77
2023/10/28 08:40:46;;;;;;;1.20;1.10;;;13.40;78.40;;;;;;5042539;28;20040;-77
2023/10/28 08:43:17;;;;;;;1.10;1.02;;;13.40;78.40;;;;;;5023650;28;20026;-78
2023/10/28 08:45:45;;;;;;;1.73;1.23;;;13.40;78.30;;;;;;5018018;28;20036;-77
2023/10/28 08:48:20;;;;;;;1.00;1.00;;;13.40;78.30;;;;;;5009098;28;20451;-77
2023/10/28 08:50:51;;;;;;;1.30;1.20;;;13.40;78.30;;;;;;5043267;28;20048;-77
2023/10/28 08:53:18;;;;;;;1.05;0.95;;;13.50;78.40;;;;;;5031251;28;20025;-78
2023/10/28 08:55:45;;;;;;;1.30;1.17;;;13.50;78.30;;;;;;5041075;28;20044;-78
2023/10/28 08:58:12;;;;;;;1.23;1.08;;;13.50;78.40;;;;;;5014507;28;20029;-78
2023/10/28 09:00:38;;;;;;;1.27;1.00;;;13.50;78.30;;;;;;5022445;28;20033;-78
2023/10/28 09:03:05;;;;;;;1.42;1.10;;;13.50;78.30;;;;;;5008370;28;20029;-78
2023/10/28 09:05:31;;;;;;;1.85;1.00;;;13.50;78.30;;;;;;5039129;28;20477;-77
2023/10/28 09:07:57;;;;;;;1.25;1.15;;;13.50;78.30;;;;;;5017614;28;20029;-78
2023/10/28 09:10:24;;;;;;;2.28;1.27;;;13.50;78.30;;;;;;5031058;28;20034;-78
2023/10/28 09:12:51;;;;;;;1.48;1.20;;;13.60;78.30;;;;;;5040139;28;20049;-77
2023/10/28 09:15:18;;;;;;;1.40;1.20;;;13.50;78.30;;;;;;5039381;28;20084;-77
2023/10/28 09:17:43;;;;;;;1.00;0.98;;;13.60;78.30;;;;;;5037791;28;20061;-78
2023/10/28 09:20:09;;;;;;;1.15;1.08;;;13.60;78.30;;;;;;5034387;28;20091;-77
2023/10/28 09:22:43;;;;;;;1.08;0.98;;;13.60;78.30;;;;;;5019496;28;20029;-78
2023/10/28 09:25:15;;;;;;;1.30;1.20;;;13.70;78.30;;;;;;5042397;28;20033;-78
2023/10/28 09:27:42;;;;;;;1.40;1.30;;;13.70;78.30;;;;;;5019021;28;20036;-77
2023/10/28 09:30:10;;;;;;;1.10;1.02;;;13.70;78.20;;;;;;5043472;28;20040;-77
2023/10/28 09:32:38;;;;;;;1.20;1.10;;;13.70;78.20;;;;;;5036785;28;20030;-77
2023/10/28 09:35:08;;;;;;;1.33;1.02;;;13.70;78.20;;;;;;5032841;28;20033;-77
2023/10/28 09:37:35;;;;;;;1.05;1.05;;;13.80;78.20;;;;;;5005657;28;20033;-77
2023/10/28 09:40:04;;;;;;;2.08;1.10;;;13.80;78.20;;;;;;5044526;28;20021;-77
2023/10/28 09:42:37;;;;;;;1.52;1.00;;;13.80;78.20;;;;;;5004997;28;20355;-78
2023/10/28 09:45:11;;;;;;;1.73;1.30;;;13.90;78.20;;;;;;5033288;28;20508;-77
2023/10/28 09:48:01;;;;;;;1.10;1.00;;;13.90;78.20;;;;;;5049432;28;20492;-77
2023/10/28 09:50:30;;;;;;;1.10;1.00;;;13.90;78.20;;;;;;5039894;28;20025;-77
2023/10/28 09:52:57;;;;;;;1.20;1.10;;;13.90;78.10;;;;;;5014229;28;20049;-77
2023/10/28 09:55:32;;;;;;;1.42;1.02;;;14.00;78.70;;;;;;5020597;28;20033;-77
2023/10/28 09:58:23;;;;;;;1.27;1.17;;;13.90;78.10;;;;;;5023144;28;20063;-77
2023/10/28 10:00:53;;;;;;;2.33;1.13;;;14.00;78.10;;;;;;5035360;28;20375;-78
2023/10/28 10:03:39;;;;;;;1.48;1.20;;;14.00;78.00;;;;;;5043469;28;20394;-79
2023/10/28 10:06:05;;;;;;;1.13;1.10;;;14.00;78.00;;;;;;5020193;28;20051;-77
2023/10/28 10:08:33;;;;;;;1.23;1.10;;;14.10;78.00;;;;;;5003221;28;20363;-78
2023/10/28 10:10:59;;;;;;;2.40;1.23;;;14.10;78.00;;;;;;5034025;28;20070;-77
2023/10/28 10:13:25;;;;;;;1.75;1.30;;;14.10;78.00;;;;;;5038936;28;20475;-77
2023/10/28 10:16:01;;;;;;;2.33;1.33;;;14.20;78.00;;;;;;5035801;28;20072;-77
2023/10/28 10:18:40;;;;;;;1.20;1.10;;;14.20;78.00;;;;;;5029353;28;20037;-77
2023/10/28 10:21:07;;;;;;;1.10;1.00;;;14.20;78.00;;;;;;5021818;28;20091;-77
2023/10/28 10:23:43;;;;;;;1.20;1.05;;;14.20;77.90;;;;;;5038574;28;20021;-79
2023/10/28 10:26:31;;;;;;;1.75;1.27;;;14.20;77.90;;;;;;5036480;28;20033;-79
2023/10/28 10:28:58;;;;;;;1.88;1.23;;;14.30;78.00;;;;;;5043379;28;20025;-77
2023/10/28 10:31:30;;;;;;;1.38;1.10;;;14.30;77.80;;;;;;5037948;28;20425;-77
2023/10/28 10:34:09;;;;;;;1.40;1.00;;;14.30;77.80;;;;;;5041606;28;20026;-77
2023/10/28 10:36:43;;;;;;;1.13;1.00;;;14.40;77.90;;;;;;5010338;28;20042;-77
2023/10/28 10:39:11;;;;;;;1.40;1.15;;;14.40;77.80;;;;;;5005594;28;20367;-75
2023/10/28 10:41:39;;;;;;;2.30;0.90;;;14.40;77.70;;;;;;5042557;28;20502;-77
2023/10/28 10:44:34;;;;;;;1.30;1.13;;;14.50;77.70;;;;;;5031000;28;20022;-77
2023/10/28 10:47:01;;;;;;;0.95;0.95;;;14.50;77.80;;;;;;5035317;28;20120;-76
2023/10/28 10:49:27;;;;;;;1.90;1.10;;;14.50;77.50;;;;;;5035859;28;20465;-77
2023/10/28 10:51:55;;;;;;;1.10;1.00;;;14.50;77.50;;;;;;5037398;28;20029;-77
2023/10/28 10:54:20;;;;;;;1.20;1.10;;;14.60;77.50;;;;;;5047501;28;20037;-77
2023/10/28 10:56:46;;;;;;;1.02;0.93;;;14.60;77.50;;;;;;5034089;28;20033;-76
2023/10/28 10:59:12;;;;;;;1.08;0.90;;;14.60;77.40;;;;;;5031170;28;20116;-77
2023/10/28 11:01:38;;;;;;;1.30;1.00;;;14.70;77.50;;;;;;5021918;28;20037;-76
2023/10/28 11:04:07;;;;;;;1.20;1.10;;;14.70;77.40;;;;;;5021834;28;20033;-78
2023/10/28 11:06:36;;;;;;;1.23;1.13;;;14.70;77.40;;;;;;5032568;28;20026;-79
2023/10/28 11:09:06;;;;;;;1.80;1.10;;;14.80;77.40;;;;;;5040372;28;20040;-79
2023/10/28 11:11:38;;;;;;;1.17;0.95;;;14.80;77.40;;;;;;5041274;28;20061;-78
2023/10/28 11:14:05;;;;;;;2.55;1.20;;;14.80;77.30;;;;;;5049471;28;20025;-79
2023/10/28 11:16:32;;;;;;;1.73;1.05;;;14.80;77.30;;;;;;5037448;28;20025;-79
2023/10/28 11:19:02;;;;;;;1.88;1.25;;;14.90;77.40;;;;;;5042675;28;20041;-79
2023/10/28 11:21:30;;;;;;;1.20;1.10;;;14.90;77.30;;;;;;5039071;28;20040;-79
2023/10/28 11:23:56;;;;;;;1.73;1.10;;;14.90;77.30;;;;;;5037457;28;20083;-78
2023/10/28 11:26:24;;;;;;;1.10;1.00;;;14.90;77.20;;;;;;5026152;28;20036;-77
2023/10/28 11:28:49;;;;;;;2.72;0.90;;;14.90;77.20;;;;;;5044901;28;20481;-77
2023/10/28 11:31:20;;;;;;;0.82;0.80;;;15.00;77.30;;;;;;5047711;28;20029;-77
2023/10/28 11:33:48;;;;;;;1.63;1.23;;;15.00;77.20;;;;;;5033606;28;20037;-78
2023/10/28 11:36:16;;;;;;;1.73;1.00;;;15.00;77.20;;;;;;5043033;28;20036;-78
2023/10/28 11:38:43;;;;;;;1.05;1.00;;;15.00;77.20;;;;;;5025147;28;20037;-77
2023/10/28 11:41:10;;;;;;;1.15;1.00;;;15.10;77.20;;;;;;5028123;28;20033;-76
2023/10/28 11:43:37;;;;;;;1.58;1.48;;;15.10;77.10;;;;;;5027237;28;20034;-76
2023/10/28 11:46:06;;;;;;;1.33;1.20;;;15.10;77.10;;;;;;5023210;28;20120;-78
2023/10/28 11:48:33;;;;;;;1.65;1.05;;;15.10;77.10;;;;;;5043500;28;20532;-78
2023/10/28 11:51:04;;;;;;;1.10;1.00;;;15.10;77.00;;;;;;5021303;28;20076;-77
2023/10/28 11:53:30;;;;;;;1.05;0.90;;;15.20;77.70;;;;;;5035485;28;20064;-77
2023/10/28 11:55:56;;;;;;;1.02;0.88;;;15.20;77.00;;;;;;5043773;28;20061;-78
2023/10/28 11:58:26;;;;;;;1.33;1.00;;;15.20;77.10;;;;;;5033524;28;20025;-77
2023/10/28 12:00:56;;;;;;;1.15;0.90;;;15.20;76.90;;;;;;5028188;28;20029;-79
2023/10/28 12:03:25;;;;;;;1.88;0.90;;;15.20;76.80;;;;;;5055703;28;20017;-79
2023/10/28 12:05:50;;;;;;;1.30;0.90;;;15.30;76.90;;;;;;5027188;28;20394;-79
2023/10/28 12:08:17;;;;;;;1.60;0.95;;;15.30;76.80;;;;;;5027767;28;20041;-78
2023/10/28 12:10:43;;;;;;;1.00;0.90;;;15.30;76.70;;;;;;5028707;28;20060;-78
2023/10/28 12:13:13;;;;;;;1.10;1.00;;;15.30;76.70;;;;;;5038482;28;20494;-76
2023/10/28 12:15:40;;;;;;;1.77;1.08;;;15.40;76.70;;;;;;5026709;28;20546;-76
2023/10/28 12:18:07;;;;;;;1.40;1.05;;;15.40;76.60;;;;;;5041014;28;20440;-77
2023/10/28 12:20:33;;;;;;;0.95;0.90;;;15.40;76.60;;;;;;5040814;28;20025;-76
2023/10/28 12:22:59;;;;;;;1.17;0.90;;;15.40;76.50;;;;;;5020753;28;20501;-76
2023/10/28 12:25:25;;;;;;;1.23;0.80;;;15.50;76.50;;;;;;5032967;28;20041;-76
2023/10/28 12:27:51;;;;;;;1.67;0.95;;;15.50;76.50;;;;;;5016525;28;20036;-76
2023/10/28 12:30:18;;;;;;;1.08;0.93;;;15.50;76.40;;;;;;5016741;28;20252;-76
2023/10/28 12:32:47;;;;;;;1.30;1.05;;;15.50;76.40;;;;;;5027685;28;20037;-76
2023/10/28 12:35:13;;;;;;;3.22;1.20;;;15.50;76.40;;;;;;5036323;28;20033;-76
2023/10/28 12:37:40;;;;;;;1.40;1.00;;;15.60;76.50;;;;;;5032510;28;20544;-76
2023/10/28 12:40:07;;;;;;;1.52;1.15;;;15.60;76.40;;;;;;5031628;28;20475;-77
2023/10/28 12:42:36;;;;;;;1.08;0.95;;;15.60;76.40;;;;;;5038980;28;20041;-78
2023/10/28 12:45:06;;;;;;;1.52;0.93;;;15.70;76.50;;;;;;5041450;28;20091;-78
2023/10/28 12:47:34;;;;;;;1.20;1.10;;;15.70;76.50;;;;;;5041063;28;20096;-77